Time;durP1;ratioP1;P1;durP2;ratioP2;P2;SDS_P1;SDS_P2;PMS_P1;PMS_P2;Temp;Humidity;BMP_temperature;BMP_pressure;BME280_temperature;BME280_humidity;BME280_pressure;Samples;Min_cycle;Max_cycle;Signal;HPM_P1;HPM_P2
2023/02/13 00:02:20;;;;;;;264.30;152.80;;;;;;;;;;109588;1250;61126;-74
2023/02/13 00:04:46;;;;;;;266.80;160.40;;;;;;;;;;109721;1249;58179;-74
2023/02/13 00:07:13;;;;;;;267.10;153.00;;;;;;;;;;109728;1249;59553;-75
2023/02/13 00:09:40;;;;;;;258.20;151.80;;;;;;;;;;109716;1251;58226;-74
2023/02/13 00:12:07;;;;;;;260.00;154.20;;;;;;;;;;109755;1250;58153;-75
2023/02/13 00:14:34;;;;;;;260.90;152.10;;;;;;;;;;109737;1249;62393;-73
2023/02/13 00:17:00;;;;;;;259.00;155.40;;;;;;;;;;109723;1251;58806;-73
2023/02/13 00:19:27;;;;;;;274.60;161.40;;;;;;;;;;109740;1249;60647;-73
2023/02/13 00:21:54;;;;;;;264.40;154.70;;;;;;;;;;109682;1251;58248;-74
2023/02/13 00:24:20;;;;;;;260.50;150.50;;;;;;;;;;109691;1250;58248;-74
2023/02/13 00:26:47;;;;;;;263.60;148.10;;;;;;;;;;109565;1254;60992;-74
2023/02/13 00:29:13;;;;;;;248.30;148.40;;;;;;;;;;109706;1251;58188;-73
2023/02/13 00:31:40;;;;;;;262.90;148.50;;;;;;;;;;109688;1250;60861;-74
2023/02/13 00:34:06;;;;;;;264.40;147.80;;;;;;;;;;108931;1249;1002473;-73
2023/02/13 00:36:33;;;;;;;252.30;146.10;;;;;;;;;;109719;1249;58246;-73
2023/02/13 00:39:00;;;;;;;256.60;150.10;;;;;;;;;;109504;1251;58132;-73
2023/02/13 00:41:26;;;;;;;217.60;134.50;;;;;;;;;;109748;1251;58470;-74
2023/02/13 00:43:53;;;;;;;183.70;113.60;;;;;;;;;;109358;1249;58272;-73
2023/02/13 00:46:19;;;;;;;170.50;106.80;;;;;;;;;;109748;1251;58206;-73
2023/02/13 00:48:46;;;;;;;180.00;111.80;;;;;;;;;;109756;1249;58302;-73
2023/02/13 00:51:13;;;;;;;203.40;119.10;;;;;;;;;;109726;1250;60795;-73
2023/02/13 00:53:39;;;;;;;211.10;126.60;;;;;;;;;;109730;1250;58085;-73
2023/02/13 00:56:06;;;;;;;224.20;132.60;;;;;;;;;;109744;1250;60492;-73
2023/02/13 00:58:33;;;;;;;201.70;121.80;;;;;;;;;;109681;1251;58154;-74
2023/02/13 01:00:59;;;;;;;209.70;120.80;;;;;;;;;;109560;1249;58616;-73
2023/02/13 01:03:26;;;;;;;209.60;117.90;;;;;;;;;;109724;1249;62792;-73
2023/02/13 01:05:55;;;;;;;191.60;112.60;;;;;;;;;;109765;1250;58244;-73
2023/02/13 01:08:21;;;;;;;184.10;111.60;;;;;;;;;;109696;1251;60246;-73
2023/02/13 01:10:48;;;;;;;186.10;113.30;;;;;;;;;;109693;1249;58212;-74
2023/02/13 01:13:17;;;;;;;190.70;116.40;;;;;;;;;;109772;1250;58594;-73
2023/02/13 01:15:44;;;;;;;165.90;97.90;;;;;;;;;;109747;1249;62226;-74
2023/02/13 01:18:15;;;;;;;150.40;89.20;;;;;;;;;;109561;1250;58207;-74
2023/02/13 01:20:42;;;;;;;142.80;86.30;;;;;;;;;;109741;1250;60883;-74
2023/02/13 01:23:09;;;;;;;131.70;79.30;;;;;;;;;;109547;1249;58200;-72
2023/02/13 01:25:42;;;;;;;125.30;77.00;;;;;;;;;;109711;1250;58194;-73
2023/02/13 01:28:08;;;;;;;123.20;73.70;;;;;;;;;;109708;1250;61251;-72
2023/02/13 01:30:35;;;;;;;120.80;72.30;;;;;;;;;;109710;1250;58265;-73
2023/02/13 01:33:01;;;;;;;111.40;67.80;;;;;;;;;;109702;1250;59764;-73
2023/02/13 01:35:28;;;;;;;125.90;71.10;;;;;;;;;;109712;1250;58124;-73
2023/02/13 01:37:54;;;;;;;118.70;68.60;;;;;;;;;;109730;1251;58291;-73
2023/02/13 01:40:21;;;;;;;117.10;66.50;;;;;;;;;;109695;1250;62351;-74
2023/02/13 01:42:47;;;;;;;114.00;65.60;;;;;;;;;;109740;1250;58406;-73
2023/02/13 01:45:19;;;;;;;97.20;57.20;;;;;;;;;;109567;1251;60850;-73
2023/02/13 01:47:53;;;;;;;97.90;57.30;;;;;;;;;;109708;1250;58202;-73
2023/02/13 01:50:20;;;;;;;94.40;55.70;;;;;;;;;;109701;1251;58245;-74
2023/02/13 01:53:07;;;;;;;90.60;54.60;;;;;;;;;;109786;1249;62014;-73
2023/02/13 01:55:36;;;;;;;86.40;53.80;;;;;;;;;;109741;1250;58249;-73
2023/02/13 01:58:08;;;;;;;90.50;52.80;;;;;;;;;;109721;1249;60664;-73
2023/02/13 02:00:35;;;;;;;90.70;53.30;;;;;;;;;;109671;1250;58111;-74
2023/02/13 02:03:06;;;;;;;97.80;55.50;;;;;;;;;;109750;1250;59195;-73
2023/02/13 02:05:33;;;;;;;99.70;57.80;;;;;;;;;;109716;1249;62697;-74
2023/02/13 02:08:01;;;;;;;98.40;58.50;;;;;;;;;;109716;1249;58514;-74
2023/02/13 02:10:28;;;;;;;97.20;57.80;;;;;;;;;;109676;1250;59829;-74
2023/02/13 02:12:59;;;;;;;98.70;58.60;;;;;;;;;;109705;1249;58444;-74
2023/02/13 02:15:26;;;;;;;104.60;57.70;;;;;;;;;;109704;1249;58627;-74
2023/02/13 02:17:52;;;;;;;101.00;57.80;;;;;;;;;;109564;1250;62286;-74
2023/02/13 02:20:34;;;;;;;95.20;57.20;;;;;;;;;;109768;1250;58203;-73
2023/02/13 02:23:16;;;;;;;89.90;55.40;;;;;;;;;;109735;1250;59781;-74
2023/02/13 02:26:01;;;;;;;95.00;53.90;;;;;;;;;;109733;1250;58213;-73
2023/02/13 02:28:30;;;;;;;87.90;49.40;;;;;;;;;;109742;1250;58041;-73
2023/02/13 02:31:11;;;;;;;75.50;46.10;;;;;;;;;;109593;1249;62391;-73
2023/02/13 02:33:37;;;;;;;;;;;;;;;;;;109768;1250;58161;-74
2023/02/13 02:36:22;;;;;;;74.80;42.30;;;;;;;;;;109737;1250;58165;-75
2023/02/13 02:39:01;;;;;;;65.40;40.30;;;;;;;;;;109678;1250;58242;-75
2023/02/13 02:41:43;;;;;;;80.20;43.60;;;;;;;;;;109779;1249;58179;-74
2023/02/13 02:44:28;;;;;;;71.60;42.50;;;;;;;;;;109415;1250;62391;-74
2023/02/13 02:50:03;;;;;;;65.50;38.90;;;;;;;;;;109683;1250;59931;-73
2023/02/13 02:52:36;;;;;;;68.10;39.00;;;;;;;;;;109728;1250;58137;-73
2023/02/13 02:55:22;;;;;;;75.50;41.00;;;;;;;;;;109731;1249;58336;-73
2023/02/13 03:06:13;;;;;;;65.50;37.20;;;;;;;;;;109070;1257;58243;-73
2023/02/13 03:14:13;;;;;;;61.60;37.20;;;;;;;;;;109051;1256;58428;-73
2023/02/13 03:22:24;;;;;;;67.80;39.50;;;;;;;;;;109070;1256;58560;-74
2023/02/13 03:24:51;;;;;;;67.20;39.00;;;;;;;;;;109086;1256;62423;-74
2023/02/13 03:30:32;;;;;;;66.60;40.20;;;;;;;;;;109035;1256;61030;-74
2023/02/13 03:33:21;;;;;;;67.50;40.30;;;;;;;;;;109084;1256;58262;-73
2023/02/13 03:38:42;;;;;;;64.60;39.10;;;;;;;;;;109732;1249;61351;-75
2023/02/13 03:41:29;;;;;;;72.30;42.20;;;;;;;;;;109440;1251;58278;-74
2023/02/13 03:44:15;;;;;;;69.70;41.50;;;;;;;;;;109094;1256;59598;-74
2023/02/13 03:46:44;;;;;;;72.50;40.20;;;;;;;;;;109090;1256;58591;-75
2023/02/13 03:52:04;;;;;;;72.60;41.40;;;;;;;;;;109033;1256;61463;-74
2023/02/13 04:00:17;;;;;;;80.00;46.10;;;;;;;;;;109062;1256;58205;-74
2023/02/13 04:02:56;;;;;;;78.80;45.10;;;;;;;;;;109135;1256;58314;-74
2023/02/13 04:05:24;;;;;;;76.00;44.00;;;;;;;;;;109118;1256;62265;-74
2023/02/13 04:07:51;;;;;;;79.20;46.40;;;;;;;;;;109052;1256;58233;-74
2023/02/13 04:10:18;;;;;;;76.40;45.60;;;;;;;;;;109067;1256;59837;-74
2023/02/13 04:12:45;;;;;;;73.20;45.30;;;;;;;;;;109058;1256;58292;-73
2023/02/13 04:15:20;;;;;;;75.00;46.50;;;;;;;;;;109103;1256;58156;-73
2023/02/13 04:17:49;;;;;;;76.40;44.70;;;;;;;;;;109113;1256;61403;-73
2023/02/13 04:20:16;;;;;;;77.20;47.30;;;;;;;;;;109171;1250;58305;-74
2023/02/13 04:22:43;;;;;;;67.10;43.80;;;;;;;;;;109676;1250;60986;-74
2023/02/13 04:25:11;;;;;;;83.40;48.20;;;;;;;;;;108959;1249;1002071;-74
2023/02/13 04:27:38;;;;;;;86.30;49.30;;;;;;;;;;109767;1250;58236;-73
2023/02/13 04:30:05;;;;;;;72.20;45.80;;;;;;;;;;109706;1250;62316;-73
2023/02/13 04:32:31;;;;;;;76.90;44.10;;;;;;;;;;109746;1249;58228;-75
2023/02/13 04:34:58;;;;;;;84.90;47.70;;;;;;;;;;109432;1250;60538;-74
2023/02/13 04:37:24;;;;;;;88.10;50.20;;;;;;;;;;109697;1250;58175;-74
2023/02/13 04:39:51;;;;;;;85.60;49.40;;;;;;;;;;109708;1250;58446;-74
2023/02/13 04:42:17;;;;;;;84.60;50.10;;;;;;;;;;109691;1250;62392;-74
2023/02/13 04:44:44;;;;;;;94.00;53.20;;;;;;;;;;109723;1250;58045;-74
2023/02/13 04:47:10;;;;;;;79.80;45.70;;;;;;;;;;109668;1249;61038;-74
2023/02/13 04:49:37;;;;;;;77.80;46.30;;;;;;;;;;109641;1249;58191;-74
2023/02/13 04:52:04;;;;;;;80.70;46.40;;;;;;;;;;109589;1250;58279;-74
2023/02/13 04:54:30;;;;;;;77.30;43.50;;;;;;;;;;109702;1250;62446;-74
2023/02/13 04:56:57;;;;;;;84.30;47.20;;;;;;;;;;109736;1250;58168;-74
2023/02/13 04:59:23;;;;;;;80.10;47.00;;;;;;;;;;109722;1249;59871;-73
2023/02/13 05:01:50;;;;;;;84.80;44.90;;;;;;;;;;109727;1249;58385;-73
2023/02/13 05:04:16;;;;;;;86.20;47.90;;;;;;;;;;109682;1250;58129;-74
2023/02/13 05:06:43;;;;;;;85.50;46.40;;;;;;;;;;109420;1251;62316;-74
2023/02/13 05:09:10;;;;;;;82.10;47.10;;;;;;;;;;109741;1249;58069;-75
2023/02/13 05:11:36;;;;;;;83.50;46.50;;;;;;;;;;109552;1253;60877;-73
2023/02/13 05:14:03;;;;;;;80.60;46.50;;;;;;;;;;109690;1249;58096;-74
2023/02/13 05:16:29;;;;;;;86.90;45.80;;;;;;;;;;109535;1250;58251;-73
2023/02/13 05:18:56;;;;;;;114.30;56.00;;;;;;;;;;109720;1249;62224;-73
2023/02/13 05:24:07;;;;;;;77.90;40.90;;;;;;;;;;109681;1250;61347;-74
2023/02/13 05:26:34;;;;;;;85.40;43.10;;;;;;;;;;109717;1250;58144;-73
2023/02/13 05:29:18;;;;;;;79.30;42.20;;;;;;;;;;109700;1250;58280;-73
2023/02/13 05:31:45;;;;;;;74.40;39.00;;;;;;;;;;109744;1249;62437;-74
2023/02/13 05:34:12;;;;;;;79.60;43.50;;;;;;;;;;109731;1250;58202;-74
2023/02/13 05:36:39;;;;;;;83.30;44.70;;;;;;;;;;109687;1250;60838;-73
2023/02/13 05:39:05;;;;;;;76.80;45.00;;;;;;;;;;109648;1249;58199;-74
2023/02/13 05:41:32;;;;;;;69.50;39.40;;;;;;;;;;109725;1250;58081;-74
2023/02/13 05:43:59;;;;;;;81.60;44.90;;;;;;;;;;109728;1249;61116;-74
2023/02/13 05:46:25;;;;;;;73.60;41.30;;;;;;;;;;109698;1249;58209;-74
2023/02/13 05:48:52;;;;;;;74.30;40.90;;;;;;;;;;109687;1249;59809;-74
2023/02/13 05:51:19;;;;;;;72.00;42.20;;;;;;;;;;109718;1249;58228;-74
2023/02/13 05:53:46;;;;;;;67.10;38.70;;;;;;;;;;109704;1250;58150;-74
2023/02/13 05:56:12;;;;;;;69.50;38.90;;;;;;;;;;109692;1250;61245;-74
2023/02/13 05:58:39;;;;;;;70.90;38.60;;;;;;;;;;109731;1250;58105;-74
2023/02/13 06:01:05;;;;;;;65.80;35.40;;;;;;;;;;109678;1249;60568;-73
2023/02/13 06:03:32;;;;;;;67.20;36.30;;;;;;;;;;109706;1250;58244;-74
2023/02/13 06:05:59;;;;;;;69.70;37.90;;;;;;;;;;109724;1249;58317;-73
2023/02/13 06:08:25;;;;;;;65.20;36.30;;;;;;;;;;109677;1250;60838;-73
2023/02/13 06:10:52;;;;;;;68.50;36.70;;;;;;;;;;109704;1249;58536;-73
2023/02/13 06:13:18;;;;;;;66.90;37.30;;;;;;;;;;109697;1250;59885;-74
2023/02/13 06:15:45;;;;;;;71.80;39.70;;;;;;;;;;109536;1250;58207;-75
2023/02/13 06:18:12;;;;;;;65.80;36.40;;;;;;;;;;109688;1249;58362;-74
2023/02/13 06:20:38;;;;;;;68.40;36.30;;;;;;;;;;109475;1251;61126;-74
2023/02/13 06:23:05;;;;;;;64.60;37.60;;;;;;;;;;109712;1250;58179;-75
2023/02/13 06:25:33;;;;;;;59.80;35.80;;;;;;;;;;109703;1250;59817;-74
2023/02/13 06:28:00;;;;;;;67.60;37.10;;;;;;;;;;109701;1250;58059;-74
2023/02/13 06:30:26;;;;;;;62.70;36.00;;;;;;;;;;109590;1251;58220;-73
2023/02/13 06:32:53;;;;;;;62.70;37.70;;;;;;;;;;109711;1250;62324;-74
2023/02/13 06:35:19;;;;;;;65.40;35.80;;;;;;;;;;109461;1249;58291;-75
2023/02/13 06:37:47;;;;;;;64.30;34.80;;;;;;;;;;109568;1250;60495;-73
2023/02/13 06:40:14;;;;;;;63.10;37.40;;;;;;;;;;109714;1249;58352;-73
2023/02/13 06:42:42;;;;;;;64.20;36.00;;;;;;;;;;109723;1249;58298;-74
2023/02/13 06:45:08;;;;;;;66.00;35.40;;;;;;;;;;109608;1249;61228;-73
2023/02/13 06:47:35;;;;;;;60.40;34.50;;;;;;;;;;109708;1249;58406;-73
2023/02/13 06:50:02;;;;;;;56.80;35.00;;;;;;;;;;109682;1249;60860;-74
2023/02/13 06:52:29;;;;;;;61.90;36.00;;;;;;;;;;109468;1249;58567;-74
2023/02/13 06:54:56;;;;;;;64.70;40.60;;;;;;;;;;109705;1249;58485;-74
2023/02/13 06:57:23;;;;;;;67.10;40.50;;;;;;;;;;109725;1250;61972;-74
2023/02/13 06:59:49;;;;;;;59.70;37.00;;;;;;;;;;109695;1250;58208;-74
2023/02/13 07:02:16;;;;;;;62.60;35.90;;;;;;;;;;109712;1249;59889;-74
2023/02/13 07:04:42;;;;;;;62.10;36.30;;;;;;;;;;109711;1249;58146;-74
2023/02/13 07:07:09;;;;;;;61.40;34.90;;;;;;;;;;109739;1249;58254;-74
2023/02/13 07:09:36;;;;;;;55.10;34.10;;;;;;;;;;109625;1250;62328;-76
2023/02/13 07:12:05;;;;;;;56.00;35.00;;;;;;;;;;109694;1249;58228;-72
2023/02/13 07:14:32;;;;;;;56.90;34.30;;;;;;;;;;109707;1249;60593;-73
2023/02/13 07:16:58;;;;;;;49.60;33.70;;;;;;;;;;109673;1250;58451;-74
2023/02/13 07:19:25;;;;;;;53.30;35.00;;;;;;;;;;109729;1249;58300;-74
2023/02/13 07:21:51;;;;;;;55.80;33.60;;;;;;;;;;109722;1249;62370;-75
2023/02/13 07:24:18;;;;;;;52.20;32.30;;;;;;;;;;109745;1250;58197;-74
2023/02/13 07:26:44;;;;;;;50.40;32.70;;;;;;;;;;108927;1249;1002403;-74
2023/02/13 07:29:11;;;;;;;53.70;35.00;;;;;;;;;;109473;1249;58229;-72
2023/02/13 07:31:38;;;;;;;52.20;33.50;;;;;;;;;;109679;1249;58350;-73
2023/02/13 07:34:05;;;;;;;51.20;33.30;;;;;;;;;;109708;1250;62168;-74
2023/02/13 07:36:32;;;;;;;52.50;34.50;;;;;;;;;;109668;1250;58639;-74
2023/02/13 07:38:59;;;;;;;44.60;30.80;;;;;;;;;;109525;1249;60666;-74
2023/02/13 07:41:25;;;;;;;50.60;33.70;;;;;;;;;;109708;1250;58197;-74
2023/02/13 07:43:52;;;;;;;50.50;32.80;;;;;;;;;;109469;1249;58378;-74
2023/02/13 07:46:19;;;;;;;52.50;32.80;;;;;;;;;;109744;1249;61354;-74
2023/02/13 07:48:45;;;;;;;49.10;32.40;;;;;;;;;;109703;1249;58553;-74
2023/02/13 07:51:12;;;;;;;57.30;34.10;;;;;;;;;;109588;1250;60927;-74
2023/02/13 07:53:39;;;;;;;57.20;34.60;;;;;;;;;;109433;1249;58229;-74
2023/02/13 07:56:06;;;;;;;56.60;35.20;;;;;;;;;;109714;1249;58205;-74
2023/02/13 07:58:34;;;;;;;58.30;37.20;;;;;;;;;;109720;1250;61257;-75
2023/02/13 08:01:08;;;;;;;59.00;37.30;;;;;;;;;;109756;1250;58576;-73
2023/02/13 08:03:34;;;;;;;59.50;37.90;;;;;;;;;;109676;1249;59943;-74
2023/02/13 08:06:01;;;;;;;60.40;38.40;;;;;;;;;;109597;1249;160630;-74
2023/02/13 08:08:28;;;;;;;61.10;37.90;;;;;;;;;;109753;1249;58206;-74
2023/02/13 08:13:41;;;;;;;56.80;36.90;;;;;;;;;;109716;1250;58061;-75
2023/02/13 08:16:08;;;;;;;56.10;35.40;;;;;;;;;;109485;1249;61005;-75
2023/02/13 08:18:34;;;;;;;56.30;34.20;;;;;;;;;;109699;1249;58152;-74
2023/02/13 08:21:01;;;;;;;53.50;31.60;;;;;;;;;;109705;1249;58680;-74
2023/02/13 08:23:28;;;;;;;47.90;31.90;;;;;;;;;;109718;1249;59980;-74
2023/02/13 08:25:58;;;;;;;41.10;28.10;;;;;;;;;;109722;1253;59126;-74
2023/02/13 08:28:24;;;;;;;44.00;28.80;;;;;;;;;;109721;1249;59820;-75
2023/02/13 08:30:51;;;;;;;38.40;26.60;;;;;;;;;;109644;1249;58454;-74
2023/02/13 08:33:17;;;;;;;39.30;25.40;;;;;;;;;;109448;1250;58192;-74
2023/02/13 08:35:44;;;;;;;36.20;26.30;;;;;;;;;;109686;1249;61242;-75
2023/02/13 08:38:10;;;;;;;36.70;25.80;;;;;;;;;;109684;1249;58228;-74
2023/02/13 08:40:37;;;;;;;36.30;24.50;;;;;;;;;;109493;1249;60122;-76
2023/02/13 08:43:04;;;;;;;37.40;27.00;;;;;;;;;;109701;1250;58165;-75
2023/02/13 08:45:31;;;;;;;41.30;28.90;;;;;;;;;;109783;1249;58213;-75
2023/02/13 08:47:58;;;;;;;37.50;26.10;;;;;;;;;;109609;1249;61212;-75
2023/02/13 08:50:25;;;;;;;34.50;23.70;;;;;;;;;;109696;1250;58135;-75
2023/02/13 08:52:52;;;;;;;31.90;23.40;;;;;;;;;;109696;1249;59727;-75
2023/02/13 08:55:19;;;;;;;31.50;22.90;;;;;;;;;;109734;1250;58288;-74
2023/02/13 08:57:46;;;;;;;32.90;23.50;;;;;;;;;;109716;1249;58119;-73
2023/02/13 09:00:13;;;;;;;31.50;21.50;;;;;;;;;;109655;1250;62215;-75
2023/02/13 09:02:40;;;;;;;35.10;24.40;;;;;;;;;;109461;1249;58341;-74
2023/02/13 09:05:06;;;;;;;31.10;22.80;;;;;;;;;;109718;1250;59474;-74
2023/02/13 09:07:33;;;;;;;31.40;23.70;;;;;;;;;;109531;1250;58072;-75
2023/02/13 09:10:00;;;;;;;36.10;24.80;;;;;;;;;;109607;1249;58196;-75
2023/02/13 09:12:26;;;;;;;40.10;26.50;;;;;;;;;;109721;1250;62341;-75
2023/02/13 09:14:53;;;;;;;39.10;26.20;;;;;;;;;;109700;1249;58466;-75
2023/02/13 09:17:19;;;;;;;30.70;22.90;;;;;;;;;;109494;1249;59987;-75
2023/02/13 09:19:46;;;;;;;32.00;22.30;;;;;;;;;;109692;1249;58520;-75
2023/02/13 09:22:14;;;;;;;30.20;22.40;;;;;;;;;;109738;1249;58118;-74
2023/02/13 09:24:40;;;;;;;35.50;23.50;;;;;;;;;;109711;1249;62157;-74
2023/02/13 09:27:07;;;;;;;35.80;23.50;;;;;;;;;;109739;1250;58284;-75
2023/02/13 09:29:34;;;;;;;31.20;22.10;;;;;;;;;;109697;1249;59873;-74
2023/02/13 09:32:00;;;;;;;27.90;20.30;;;;;;;;;;109688;1249;58222;-74
2023/02/13 09:34:27;;;;;;;30.10;20.00;;;;;;;;;;109724;1249;58249;-74
2023/02/13 09:36:53;;;;;;;27.80;20.30;;;;;;;;;;109726;1249;62414;-73
2023/02/13 09:39:20;;;;;;;23.80;17.30;;;;;;;;;;109506;1249;58161;-74
2023/02/13 09:41:48;;;;;;;24.70;17.90;;;;;;;;;;109695;1249;60939;-73
2023/02/13 09:44:42;;;;;;;26.00;17.70;;;;;;;;;;109701;1249;58180;-74
2023/02/13 09:47:27;;;;;;;22.80;16.30;;;;;;;;;;109128;1256;58373;-74
2023/02/13 09:50:08;;;;;;;23.40;16.50;;;;;;;;;;109110;1256;62365;-74
2023/02/13 09:52:37;;;;;;;22.50;15.50;;;;;;;;;;109156;1256;58216;-75
2023/02/13 09:55:17;;;;;;;20.10;14.30;;;;;;;;;;109083;1256;59897;-73
2023/02/13 09:58:02;;;;;;;20.50;14.00;;;;;;;;;;108945;1256;58180;-74
2023/02/13 10:00:34;;;;;;;18.90;12.80;;;;;;;;;;108915;1256;58503;-74
2023/02/13 10:03:01;;;;;;;17.60;12.70;;;;;;;;;;109039;1257;62429;-73
2023/02/13 10:05:50;;;;;;;15.00;10.50;;;;;;;;;;109092;1256;58212;-82
2023/02/13 10:08:23;;;;;;;15.30;10.70;;;;;;;;;;108843;1256;59687;-73
2023/02/13 10:10:52;;;;;;;13.90;9.50;;;;;;;;;;109058;1256;58543;-71
2023/02/13 10:13:22;;;;;;;12.30;9.60;;;;;;;;;;109064;1256;58460;-71
2023/02/13 10:15:53;;;;;;;12.20;8.80;;;;;;;;;;109081;1256;61211;-73
2023/02/13 10:18:33;;;;;;;10.90;8.30;;;;;;;;;;108909;1259;58382;-72
2023/02/13 10:21:01;;;;;;;9.80;6.80;;;;;;;;;;108919;1259;59937;-70
2023/02/13 10:23:27;;;;;;;9.80;7.90;;;;;;;;;;109088;1254;58312;-76
2023/02/13 10:25:59;;;;;;;7.40;5.70;;;;;;;;;;109544;1253;58308;-76
2023/02/13 10:28:40;;;;;;;10.70;7.10;;;;;;;;;;109458;1253;61253;-76
2023/02/13 10:31:16;;;;;;;11.40;7.30;;;;;;;;;;109551;1253;58083;-76
2023/02/13 10:33:54;;;;;;;12.50;7.80;;;;;;;;;;109495;1253;60000;-77
2023/02/13 10:36:23;;;;;;;12.40;8.70;;;;;;;;;;109455;1252;58229;-78
2023/02/13 10:38:50;;;;;;;11.50;8.30;;;;;;;;;;109234;1253;58454;-77
2023/02/13 10:41:21;;;;;;;10.80;7.10;;;;;;;;;;109471;1253;61175;-78
2023/02/13 10:44:06;;;;;;;11.20;8.20;;;;;;;;;;109376;1254;58183;-79
2023/02/13 10:46:45;;;;;;;11.10;7.80;;;;;;;;;;109493;1252;59827;-78
2023/02/13 10:49:22;;;;;;;13.30;8.70;;;;;;;;;;109467;1253;58585;-78
2023/02/13 10:51:56;;;;;;;8.30;6.20;;;;;;;;;;109482;1253;58143;-78
2023/02/13 10:54:25;;;;;;;9.60;5.70;;;;;;;;;;109216;1253;61169;-77
2023/02/13 10:56:55;;;;;;;8.30;5.10;;;;;;;;;;109611;1252;58163;-78
2023/02/13 10:59:36;;;;;;;10.30;6.80;;;;;;;;;;109518;1252;61268;-79
2023/02/13 11:02:20;;;;;;;10.30;6.80;;;;;;;;;;109583;1256;58150;-77
2023/02/13 11:04:46;;;;;;;10.60;7.40;;;;;;;;;;109601;1251;57979;-77
2023/02/13 11:07:14;;;;;;;12.50;9.20;;;;;;;;;;109569;1252;62269;-76
2023/02/13 11:09:42;;;;;;;12.60;8.30;;;;;;;;;;109551;1253;58175;-77
2023/02/13 11:12:26;;;;;;;13.30;9.10;;;;;;;;;;109537;1252;59892;-77
2023/02/13 11:14:54;;;;;;;13.40;10.00;;;;;;;;;;109552;1252;58168;-78
2023/02/13 11:17:21;;;;;;;11.10;8.00;;;;;;;;;;109581;1252;58226;-77
2023/02/13 11:19:50;;;;;;;14.10;7.70;;;;;;;;;;109587;1252;62583;-76
2023/02/13 11:22:28;;;;;;;11.10;7.90;;;;;;;;;;109555;1253;58185;-76
2023/02/13 11:24:58;;;;;;;11.80;7.90;;;;;;;;;;109602;1252;61010;-77
2023/02/13 11:27:27;;;;;;;11.40;7.40;;;;;;;;;;109575;1252;58158;-78
2023/02/13 11:30:06;;;;;;;13.30;9.00;;;;;;;;;;109579;1252;58261;-77
2023/02/13 11:32:34;;;;;;;18.20;10.20;;;;;;;;;;109577;1253;62348;-77
2023/02/13 11:35:36;;;;;;;19.80;11.70;;;;;;;;;;109583;1253;58198;-77
2023/02/13 11:38:14;;;;;;;19.60;13.10;;;;;;;;;;108929;1259;59950;-77
2023/02/13 11:40:49;;;;;;;19.60;13.70;;;;;;;;;;108926;1260;58215;-78
2023/02/13 11:43:23;;;;;;;19.90;13.80;;;;;;;;;;108947;1259;58504;-76
2023/02/13 11:46:08;;;;;;;21.10;15.60;;;;;;;;;;108940;1260;61442;-77
2023/02/13 11:48:34;;;;;;;20.60;14.30;;;;;;;;;;108951;1260;58143;-78
2023/02/13 11:51:02;;;;;;;25.50;16.10;;;;;;;;;;109001;1259;60984;-78
2023/02/13 11:53:30;;;;;;;22.60;14.20;;;;;;;;;;108977;1259;58601;-76
2023/02/13 11:56:13;;;;;;;24.30;16.10;;;;;;;;;;108977;1259;58331;-76
2023/02/13 11:58:41;;;;;;;23.50;16.70;;;;;;;;;;108999;1259;61186;-76
2023/02/13 12:01:07;;;;;;;23.30;15.50;;;;;;;;;;109028;1258;58364;-77
2023/02/13 12:03:34;;;;;;;24.90;16.20;;;;;;;;;;108964;1259;59758;-77
2023/02/13 12:06:01;;;;;;;22.90;15.90;;;;;;;;;;108940;1263;58311;-77
2023/02/13 12:08:28;;;;;;;20.50;14.00;;;;;;;;;;108995;1259;58228;-79
2023/02/13 12:10:56;;;;;;;20.10;13.80;;;;;;;;;;108981;1259;61441;-78
2023/02/13 12:13:36;;;;;;;20.70;15.20;;;;;;;;;;109578;1250;58315;-77
2023/02/13 12:16:05;;;;;;;23.30;15.00;;;;;;;;;;109591;1250;61058;-78
2023/02/13 12:18:34;;;;;;;24.60;14.50;;;;;;;;;;109601;1250;58378;-77
2023/02/13 12:21:04;;;;;;;21.40;13.50;;;;;;;;;;109605;1251;58241;-78
2023/02/13 12:24:06;;;;;;;17.70;11.90;;;;;;;;;;109637;1250;62580;-78
2023/02/13 12:26:49;;;;;;;15.80;11.10;;;;;;;;;;109096;1256;58360;-78
2023/02/13 12:29:18;;;;;;;18.90;13.00;;;;;;;;;;109103;1256;61182;-78
2023/02/13 12:31:44;;;;;;;17.30;12.70;;;;;;;;;;109055;1256;58491;-78
2023/02/13 12:34:17;;;;;;;17.10;12.30;;;;;;;;;;109083;1256;58382;-78
2023/02/13 12:36:43;;;;;;;19.80;12.80;;;;;;;;;;109095;1256;62259;-77
2023/02/13 12:39:17;;;;;;;16.50;12.30;;;;;;;;;;109141;1256;58216;-76
2023/02/13 12:41:44;;;;;;;19.80;13.20;;;;;;;;;;109099;1256;59619;-77
2023/02/13 12:44:21;;;;;;;17.50;13.30;;;;;;;;;;109119;1256;58550;-77
2023/02/13 12:47:03;;;;;;;17.70;13.30;;;;;;;;;;109212;1256;58156;-76
2023/02/13 12:49:46;;;;;;;22.10;14.70;;;;;;;;;;109192;1255;62472;-76
2023/02/13 12:52:13;;;;;;;16.20;11.80;;;;;;;;;;109197;1256;58262;-77
2023/02/13 12:55:09;;;;;;;21.40;13.80;;;;;;;;;;109199;1256;58621;-77
2023/02/13 12:57:41;;;;;;;22.50;14.90;;;;;;;;;;108774;1262;58475;-77
2023/02/13 13:00:17;;;;;;;16.40;12.60;;;;;;;;;;108797;1256;58207;-77
2023/02/13 13:03:02;;;;;;;18.70;13.40;;;;;;;;;;109109;1256;62340;-78
2023/02/13 13:05:44;;;;;;;17.10;12.60;;;;;;;;;;109014;1259;58279;-76
2023/02/13 13:08:22;;;;;;;18.90;12.80;;;;;;;;;;109091;1256;61086;-78
2023/02/13 13:10:57;;;;;;;15.10;11.30;;;;;;;;;;109085;1256;58501;-76
2023/02/13 13:13:38;;;;;;;15.90;11.10;;;;;;;;;;109140;1256;58186;-77
2023/02/13 13:16:04;;;;;;;13.20;9.60;;;;;;;;;;109088;1256;62316;-77
2023/02/13 13:18:31;;;;;;;15.40;11.90;;;;;;;;;;109068;1261;58932;-77
2023/02/13 13:21:06;;;;;;;13.50;10.80;;;;;;;;;;109082;1256;60763;-76
2023/02/13 13:23:37;;;;;;;15.20;11.10;;;;;;;;;;109063;1256;58143;-76
2023/02/13 13:26:17;;;;;;;14.80;11.00;;;;;;;;;;109063;1256;58243;-78
2023/02/13 13:28:43;;;;;;;;;;;;;;;;;;109162;1256;61410;-77
2023/02/13 13:31:10;;;;;;;14.70;10.60;;;;;;;;;;109119;1256;58656;-77
2023/02/13 13:33:40;;;;;;;14.50;12.40;;;;;;;;;;109226;1251;61266;-77
2023/02/13 13:36:10;;;;;;;16.50;13.00;;;;;;;;;;109586;1251;59003;-77
2023/02/13 13:38:50;;;;;;;14.70;12.60;;;;;;;;;;109604;1250;58962;-77
2023/02/13 13:41:26;;;;;;;14.80;11.40;;;;;;;;;;109518;1253;63028;-76
2023/02/13 13:44:05;;;;;;;16.40;12.50;;;;;;;;;;109633;1251;58875;-77
2023/02/13 13:46:36;;;;;;;16.50;12.80;;;;;;;;;;109583;1250;60608;-77
2023/02/13 13:49:05;;;;;;;17.20;11.70;;;;;;;;;;109544;1250;59355;-77
2023/02/13 13:51:32;;;;;;;14.70;11.70;;;;;;;;;;109717;1251;58996;-77
2023/02/13 13:53:59;;;;;;;15.30;11.60;;;;;;;;;;109728;1251;63086;-78
2023/02/13 13:56:46;;;;;;;14.20;10.30;;;;;;;;;;109734;1251;58950;-78
2023/02/13 13:59:16;;;;;;;16.20;12.60;;;;;;;;;;109546;1251;59889;-78
2023/02/13 14:01:43;;;;;;;14.60;11.40;;;;;;;;;;109739;1251;59253;-77
2023/02/13 14:04:28;;;;;;;17.00;12.70;;;;;;;;;;109726;1249;58956;-77
2023/02/13 14:06:57;;;;;;;19.10;13.50;;;;;;;;;;109727;1251;63502;-77
2023/02/13 14:09:27;;;;;;;19.20;14.20;;;;;;;;;;109705;1251;58974;-76
2023/02/13 14:11:55;;;;;;;20.20;15.30;;;;;;;;;;109723;1250;60289;-76
2023/02/13 14:14:27;;;;;;;19.40;16.90;;;;;;;;;;109726;1251;59135;-78
2023/02/13 14:16:55;;;;;;;23.10;18.40;;;;;;;;;;109386;1250;59063;-79
2023/02/13 14:19:30;;;;;;;24.20;20.10;;;;;;;;;;109691;1250;62073;-78
2023/02/13 14:22:16;;;;;;;29.40;21.30;;;;;;;;;;109580;1251;59116;-77
2023/02/13 14:25:04;;;;;;;25.60;21.20;;;;;;;;;;109096;1257;59872;-78
2023/02/13 14:27:36;;;;;;;26.30;20.90;;;;;;;;;;108775;1262;59005;-77
2023/02/13 14:30:04;;;;;;;25.40;21.40;;;;;;;;;;108798;1262;59144;-78
2023/02/13 14:32:32;;;;;;;30.10;23.00;;;;;;;;;;108646;1262;63207;-78
2023/02/13 14:35:00;;;;;;;31.60;23.70;;;;;;;;;;108776;1263;59535;-77
2023/02/13 14:37:30;;;;;;;33.10;24.90;;;;;;;;;;108686;1262;59963;-77
2023/02/13 14:40:14;;;;;;;29.80;24.00;;;;;;;;;;108758;1263;59013;-79
2023/02/13 14:42:42;;;;;;;34.00;26.10;;;;;;;;;;108771;1262;59040;-78
2023/02/13 14:45:26;;;;;;;35.00;26.80;;;;;;;;;;108793;1262;63197;-77
2023/02/13 14:47:55;;;;;;;34.60;28.70;;;;;;;;;;108776;1263;59094;-78
2023/02/13 14:50:28;;;;;;;34.60;27.70;;;;;;;;;;108756;1266;60990;-77
2023/02/13 14:52:57;;;;;;;35.90;29.70;;;;;;;;;;108746;1263;59002;-78
2023/02/13 14:55:32;;;;;;;34.80;27.10;;;;;;;;;;108783;1262;59033;-78
2023/02/13 14:58:06;;;;;;;32.70;25.30;;;;;;;;;;108684;1264;62087;-78
2023/02/13 15:00:35;;;;;;;32.00;23.70;;;;;;;;;;108675;1262;59287;-77
2023/02/13 15:03:04;;;;;;;31.20;25.00;;;;;;;;;;109049;1257;59970;-78
2023/02/13 15:05:32;;;;;;;31.20;24.50;;;;;;;;;;109525;1250;59077;-78